Time;durP1;ratioP1;P1;durP2;ratioP2;P2;SDS_P1;SDS_P2;PMS_P1;PMS_P2;Temp;Humidity;BMP_temperature;BMP_pressure;BME280_temperature;BME280_humidity;BME280_pressure;Samples;Min_cycle;Max_cycle;Signal;HPM_P1;HPM_P2
2023/07/07 00:00:47;;;;;;;0.73;0.73;;;;;;;;;;7401170;19;20567;-87
2023/07/07 00:03:14;;;;;;;0.35;0.35;;;;;;;;;;7399466;19;20144;-87
2023/07/07 00:05:42;;;;;;;1.90;0.70;;;;;;;;;;7399884;19;20153;-87
2023/07/07 00:08:11;;;;;;;1.15;1.08;;;;;;;;;;7401455;19;20551;-87
2023/07/07 00:10:38;;;;;;;1.08;1.08;;;;;;;;;;7399951;19;20629;-86
2023/07/07 00:13:04;;;;;;;0.38;0.38;;;;;;;;;;7396584;19;20137;-88
2023/07/07 00:15:33;;;;;;;0.60;0.60;;;;;;;;;;7399027;19;20145;-87
2023/07/07 00:17:59;;;;;;;0.77;0.77;;;;;;;;;;7396971;19;20149;-87
2023/07/07 00:20:26;;;;;;;0.82;0.82;;;;;;;;;;7399374;19;20141;-87
2023/07/07 00:22:55;;;;;;;0.50;0.50;;;;;;;;;;7400789;19;20140;-87
2023/07/07 00:25:22;;;;;;;0.73;0.73;;;;;;;;;;7399196;19;20151;-86
2023/07/07 00:27:49;;;;;;;0.60;0.60;;;;;;;;;;7398947;19;20492;-87
2023/07/07 00:30:15;;;;;;;0.85;0.85;;;;;;;;;;7400167;19;20129;-86
2023/07/07 00:32:42;;;;;;;1.58;0.95;;;;;;;;;;7398400;19;20141;-88
2023/07/07 00:35:10;;;;;;;0.88;0.88;;;;;;;;;;7399124;19;20140;-87
2023/07/07 00:37:37;;;;;;;0.70;0.70;;;;;;;;;;7396785;19;20197;-87
2023/07/07 00:40:05;;;;;;;0.90;0.80;;;;;;;;;;7399342;19;20143;-87
2023/07/07 00:42:31;;;;;;;1.50;1.40;;;;;;;;;;7398274;19;20798;-87
2023/07/07 00:45:04;;;;;;;0.60;0.60;;;;;;;;;;7399021;19;20152;-87
2023/07/07 00:47:32;;;;;;;0.40;0.40;;;;;;;;;;7398685;19;20482;-87
2023/07/07 00:49:59;;;;;;;3.00;1.30;;;;;;;;;;7396262;19;20149;-87
2023/07/07 00:52:26;;;;;;;0.93;0.90;;;;;;;;;;7397397;19;20137;-87
2023/07/07 00:54:52;;;;;;;0.98;0.98;;;;;;;;;;7398757;19;20141;-85
2023/07/07 00:57:19;;;;;;;0.70;0.70;;;;;;;;;;7397883;19;20647;-86
2023/07/07 00:59:46;;;;;;;0.88;0.88;;;;;;;;;;7398453;19;20148;-86
2023/07/07 01:02:24;;;;;;;0.75;0.75;;;;;;;;;;7405014;19;20144;-85
2023/07/07 01:04:58;;;;;;;0.60;0.60;;;;;;;;;;7427500;19;20129;-85
2023/07/07 01:07:32;;;;;;;1.00;0.98;;;;;;;;;;7426115;19;20153;-84
2023/07/07 01:09:59;;;;;;;0.50;0.50;;;;;;;;;;7424878;19;20128;-85
2023/07/07 01:12:25;;;;;;;1.00;0.95;;;;;;;;;;7427272;19;20138;-85
2023/07/07 01:14:52;;;;;;;0.82;0.82;;;;;;;;;;7424476;19;20144;-85
2023/07/07 01:17:42;;;;;;;1.75;1.17;;;;;;;;;;7424209;19;20141;-85
2023/07/07 01:20:30;;;;;;;1.27;0.73;;;;;;;;;;7426768;19;20128;-86
2023/07/07 01:23:18;;;;;;;0.85;0.85;;;;;;;;;;7423612;19;20141;-86
2023/07/07 01:26:26;;;;;;;0.50;0.50;;;;;;;;;;7399986;19;20216;-86
2023/07/07 01:29:04;;;;;;;2.08;1.15;;;;;;;;;;7399423;19;20137;-87
2023/07/07 01:31:40;;;;;;;0.90;0.60;;;;;;;;;;7401264;19;20147;-86
2023/07/07 01:34:09;;;;;;;0.65;0.55;;;;;;;;;;7398839;19;20609;-87
2023/07/07 01:36:36;;;;;;;0.50;0.50;;;;;;;;;;7399750;19;20141;-86
2023/07/07 01:39:03;;;;;;;1.05;1.05;;;;;;;;;;7400029;19;20133;-86
2023/07/07 01:41:38;;;;;;;0.40;0.40;;;;;;;;;;7400290;19;20150;-86
2023/07/07 01:44:31;;;;;;;1.00;0.82;;;;;;;;;;7401125;19;20133;-87
2023/07/07 01:47:15;;;;;;;1.25;1.15;;;;;;;;;;7399260;19;20236;-87
2023/07/07 01:49:47;;;;;;;0.63;0.63;;;;;;;;;;7398829;19;20136;-87
2023/07/07 01:52:24;;;;;;;0.40;0.40;;;;;;;;;;7398686;19;20880;-87
2023/07/07 01:54:58;;;;;;;0.45;0.45;;;;;;;;;;7396384;19;20141;-88
2023/07/07 01:57:26;;;;;;;0.68;0.68;;;;;;;;;;7397452;19;20164;-87
2023/07/07 01:59:53;;;;;;;0.70;0.70;;;;;;;;;;7398993;19;20137;-87
2023/07/07 02:02:20;;;;;;;0.60;0.60;;;;;;;;;;7399317;19;20590;-87
2023/07/07 02:04:46;;;;;;;0.60;0.60;;;;;;;;;;7398768;19;20137;-86
2023/07/07 02:07:13;;;;;;;0.60;0.60;;;;;;;;;;7397538;19;20164;-87
2023/07/07 02:09:40;;;;;;;0.55;0.55;;;;;;;;;;7398406;19;20148;-87
2023/07/07 02:12:07;;;;;;;1.13;1.02;;;;;;;;;;7397020;19;20133;-88
2023/07/07 02:14:33;;;;;;;0.63;0.63;;;;;;;;;;7398501;19;20152;-86
2023/07/07 02:17:00;;;;;;;0.63;0.63;;;;;;;;;;7397188;19;20172;-87
2023/07/07 02:19:27;;;;;;;0.80;0.80;;;;;;;;;;7398036;19;20145;-87
2023/07/07 02:21:54;;;;;;;1.25;1.15;;;;;;;;;;7398560;19;20137;-86
2023/07/07 02:24:20;;;;;;;4.63;0.85;;;;;;;;;;7400842;19;20144;-85
2023/07/07 02:26:49;;;;;;;0.73;0.52;;;;;;;;;;7397700;19;20654;-86
2023/07/07 02:29:16;;;;;;;0.88;0.88;;;;;;;;;;7400837;19;20555;-86
2023/07/07 02:31:43;;;;;;;0.52;0.52;;;;;;;;;;7397492;19;20152;-86
2023/07/07 02:34:10;;;;;;;0.55;0.55;;;;;;;;;;7399258;19;20156;-85
2023/07/07 02:36:36;;;;;;;0.47;0.47;;;;;;;;;;7398575;19;20145;-86
2023/07/07 02:39:04;;;;;;;0.52;0.52;;;;;;;;;;7399897;19;20140;-85
2023/07/07 02:41:30;;;;;;;0.68;0.68;;;;;;;;;;7400980;19;20589;-86
2023/07/07 02:43:57;;;;;;;0.60;0.60;;;;;;;;;;7405772;19;20149;-86
2023/07/07 02:46:23;;;;;;;2.83;1.25;;;;;;;;;;7407800;19;20165;-86
2023/07/07 02:48:50;;;;;;;0.45;0.45;;;;;;;;;;7408065;19;20124;-86
2023/07/07 02:51:17;;;;;;;1.15;1.00;;;;;;;;;;7395904;19;20137;-86
2023/07/07 02:53:43;;;;;;;0.47;0.47;;;;;;;;;;7395997;19;20559;-86
2023/07/07 02:56:10;;;;;;;0.80;0.80;;;;;;;;;;7394591;19;20178;-86
2023/07/07 02:58:37;;;;;;;0.55;0.55;;;;;;;;;;7392130;19;20500;-86
2023/07/07 03:01:13;;;;;;;1.08;1.08;;;;;;;;;;7392372;19;20139;-85
2023/07/07 03:03:43;;;;;;;0.47;0.47;;;;;;;;;;7391247;19;20208;-86
2023/07/07 03:06:15;;;;;;;0.60;0.60;;;;;;;;;;7391979;19;20176;-86
2023/07/07 03:08:42;;;;;;;0.75;0.75;;;;;;;;;;7392579;19;20129;-86
2023/07/07 03:11:11;;;;;;;0.47;0.47;;;;;;;;;;7391998;19;20139;-86
2023/07/07 03:13:38;;;;;;;1.42;1.33;;;;;;;;;;7391616;19;20196;-86
2023/07/07 03:16:12;;;;;;;0.50;0.50;;;;;;;;;;7391422;19;20153;-86
2023/07/07 03:18:40;;;;;;;0.30;0.30;;;;;;;;;;7389084;19;20159;-86
2023/07/07 03:21:07;;;;;;;0.70;0.70;;;;;;;;;;7391186;19;20152;-88
2023/07/07 03:23:35;;;;;;;0.70;0.70;;;;;;;;;;7389424;19;20148;-86
2023/07/07 03:26:07;;;;;;;0.30;0.30;;;;;;;;;;7388379;19;20165;-86
2023/07/07 03:28:33;;;;;;;2.10;0.93;;;;;;;;;;7390976;19;20145;-86
2023/07/07 03:31:08;;;;;;;0.40;0.40;;;;;;;;;;7392341;19;20137;-86
2023/07/07 03:33:35;;;;;;;0.43;0.43;;;;;;;;;;7392187;19;20125;-87
2023/07/07 03:36:02;;;;;;;2.15;1.17;;;;;;;;;;7389345;19;20167;-87
2023/07/07 03:38:28;;;;;;;0.32;0.32;;;;;;;;;;7394262;19;20147;-89
2023/07/07 03:40:55;;;;;;;0.60;0.60;;;;;;;;;;7399339;19;20121;-86
2023/07/07 03:43:22;;;;;;;0.50;0.50;;;;;;;;;;7398325;19;20129;-86
2023/07/07 03:45:48;;;;;;;0.50;0.50;;;;;;;;;;7398560;19;20152;-86
2023/07/07 03:48:15;;;;;;;0.68;0.68;;;;;;;;;;7397801;19;20605;-86
2023/07/07 03:50:42;;;;;;;0.63;0.63;;;;;;;;;;7396138;19;20133;-87
2023/07/07 03:53:08;;;;;;;0.65;0.65;;;;;;;;;;7396473;19;20666;-86
2023/07/07 03:55:35;;;;;;;0.90;0.75;;;;;;;;;;7393393;19;20145;-86
2023/07/07 03:58:02;;;;;;;0.60;0.60;;;;;;;;;;7395489;19;20134;-87
2023/07/07 04:00:29;;;;;;;0.43;0.43;;;;;;;;;;7392697;19;20133;-87
2023/07/07 04:02:56;;;;;;;0.40;0.40;;;;;;;;;;7393604;19;20144;-86
2023/07/07 04:05:23;;;;;;;0.40;0.40;;;;;;;;;;7391065;19;20560;-87
2023/07/07 04:07:49;;;;;;;0.30;0.30;;;;;;;;;;7392275;19;20463;-86
2023/07/07 04:10:16;;;;;;;0.30;0.30;;;;;;;;;;7393394;19;20137;-86
2023/07/07 04:12:43;;;;;;;1.20;1.10;;;;;;;;;;7391355;19;20154;-86
2023/07/07 04:15:10;;;;;;;0.52;0.52;;;;;;;;;;7391781;19;20133;-85
2023/07/07 04:17:36;;;;;;;0.47;0.47;;;;;;;;;;7392219;19;20605;-85
2023/07/07 04:20:05;;;;;;;0.60;0.60;;;;;;;;;;7394499;19;20137;-87
2023/07/07 04:22:32;;;;;;;0.50;0.50;;;;;;;;;;7397180;19;20534;-87
2023/07/07 04:25:09;;;;;;;1.15;1.15;;;;;;;;;;7402071;19;20140;-86
2023/07/07 04:27:35;;;;;;;0.32;0.32;;;;;;;;;;7402402;19;20137;-86
2023/07/07 04:30:03;;;;;;;0.70;0.70;;;;;;;;;;7398957;19;20133;-86
2023/07/07 04:32:33;;;;;;;0.30;0.30;;;;;;;;;;7401669;19;20157;-87
2023/07/07 04:35:01;;;;;;;1.55;0.70;;;;;;;;;;7401076;19;20160;-87
2023/07/07 04:37:28;;;;;;;0.47;0.47;;;;;;;;;;7399081;19;20636;-87
2023/07/07 04:39:54;;;;;;;0.40;0.40;;;;;;;;;;7400366;19;20136;-86
2023/07/07 04:42:21;;;;;;;1.00;0.88;;;;;;;;;;7400901;19;20647;-86
2023/07/07 04:44:48;;;;;;;0.63;0.63;;;;;;;;;;7399717;19;20620;-87
2023/07/07 04:47:14;;;;;;;0.82;0.82;;;;;;;;;;7396521;19;20628;-87
2023/07/07 04:49:41;;;;;;;0.60;0.60;;;;;;;;;;7398874;19;20141;-85
2023/07/07 04:52:08;;;;;;;0.60;0.60;;;;;;;;;;7398209;19;20137;-86
2023/07/07 04:54:35;;;;;;;1.27;1.17;;;;;;;;;;7399293;19;20129;-86
2023/07/07 04:57:03;;;;;;;0.47;0.43;;;;;;;;;;7396090;19;20173;-86
2023/07/07 04:59:31;;;;;;;0.73;0.70;;;;;;;;;;7398221;19;20137;-87
2023/07/07 05:02:29;;;;;;;0.60;0.60;;;;;;;;;;7397072;19;20148;-85
2023/07/07 05:04:56;;;;;;;1.60;1.30;;;;;;;;;;7399365;19;20141;-86
2023/07/07 05:07:24;;;;;;;0.50;0.50;;;;;;;;;;7397196;19;20158;-86
2023/07/07 05:09:51;;;;;;;0.50;0.50;;;;;;;;;;7396002;19;20602;-86
2023/07/07 05:12:18;;;;;;;0.75;0.75;;;;;;;;;;7394723;19;20141;-85
2023/07/07 05:14:46;;;;;;;0.82;0.75;;;;;;;;;;7390278;19;20549;-85
2023/07/07 05:17:15;;;;;;;1.38;1.30;;;;;;;;;;7392516;19;20514;-87
2023/07/07 05:20:39;;;;;;;0.98;0.90;;;;;;;;;;7388240;19;20216;-86
2023/07/07 05:24:05;;;;;;;1.08;0.90;;;;;;;;;;7390654;19;20184;-88
2023/07/07 05:27:24;;;;;;;0.60;0.60;;;;;;;;;;7389744;19;20166;-88
2023/07/07 05:29:51;;;;;;;0.73;0.73;;;;;;;;;;7395778;19;20145;-89
2023/07/07 05:32:18;;;;;;;1.15;1.10;;;;;;;;;;7395137;19;20148;-89
2023/07/07 05:34:45;;;;;;;0.50;0.50;;;;;;;;;;7396491;19;20153;-89
2023/07/07 05:37:11;;;;;;;1.67;0.98;;;;;;;;;;7394723;19;20158;-88
2023/07/07 05:39:38;;;;;;;0.68;0.68;;;;;;;;;;7392270;19;20145;-89
2023/07/07 05:42:06;;;;;;;2.05;0.88;;;;;;;;;;7392432;19;20147;-89
2023/07/07 05:44:33;;;;;;;0.85;0.85;;;;;;;;;;7397906;19;20221;-90
2023/07/07 05:46:59;;;;;;;0.95;0.82;;;;;;;;;;7391432;19;20155;-88
2023/07/07 05:49:26;;;;;;;1.10;1.00;;;;;;;;;;7388813;19;20129;-88
2023/07/07 05:51:53;;;;;;;0.50;0.50;;;;;;;;;;7392101;19;20125;-87
2023/07/07 05:54:21;;;;;;;2.15;1.27;;;;;;;;;;7390779;19;20137;-91
2023/07/07 05:56:48;;;;;;;0.50;0.50;;;;;;;;;;7391549;19;20564;-89
2023/07/07 05:59:41;;;;;;;0.80;0.80;;;;;;;;;;7392012;19;20218;-88
2023/07/07 06:02:10;;;;;;;2.38;1.27;;;;;;;;;;7386558;19;20489;-88
2023/07/07 06:04:37;;;;;;;1.50;1.40;;;;;;;;;;7391929;19;20129;-88
2023/07/07 06:07:04;;;;;;;1.02;0.93;;;;;;;;;;7392361;19;20503;-88
2023/07/07 06:09:30;;;;;;;1.85;1.70;;;;;;;;;;7393412;19;20149;-89
2023/07/07 06:11:57;;;;;;;1.48;1.30;;;;;;;;;;7391708;19;20612;-88
2023/07/07 06:14:24;;;;;;;1.63;1.38;;;;;;;;;;7390654;19;20137;-88
2023/07/07 06:16:51;;;;;;;1.00;0.95;;;;;;;;;;7391367;19;20153;-88
2023/07/07 06:19:17;;;;;;;1.27;1.17;;;;;;;;;;7391574;19;20129;-88
2023/07/07 06:21:44;;;;;;;1.65;1.48;;;;;;;;;;7391081;19;20140;-88
2023/07/07 06:24:11;;;;;;;0.95;0.95;;;;;;;;;;7391326;19;20144;-88
2023/07/07 06:26:37;;;;;;;0.85;0.85;;;;;;;;;;7390424;19;20149;-88
2023/07/07 06:29:04;;;;;;;0.77;0.77;;;;;;;;;;7392459;19;20133;-88
2023/07/07 06:31:31;;;;;;;0.90;0.88;;;;;;;;;;7393449;19;20566;-88
2023/07/07 06:33:57;;;;;;;1.33;1.23;;;;;;;;;;7393403;19;20141;-88
2023/07/07 06:36:24;;;;;;;1.10;0.98;;;;;;;;;;7392639;19;20149;-88
